Time;durP1;ratioP1;P1;durP2;ratioP2;P2;SDS_P1;SDS_P2;PMS_P1;PMS_P2;Temp;Humidity;BMP_temperature;BMP_pressure;BME280_temperature;BME280_humidity;BME280_pressure;Samples;Min_cycle;Max_cycle;Signal;HPM_P1;HPM_P2
2023/01/09 00:00:46;;;;;;;5.25;1.50;;;;;;;5.98;100.00;99273.84;5039909;28;20014;-36
2023/01/09 00:03:12;;;;;;;11.20;1.83;;;;;;;5.97;100.00;99276.72;5035743;28;20040;-37
2023/01/09 00:05:37;;;;;;;6.53;1.25;;;;;;;5.94;100.00;99281.41;5033993;28;20453;-39
2023/01/09 00:08:02;;;;;;;16.75;1.98;;;;;;;5.95;100.00;99284.94;5035234;28;20571;-38
2023/01/09 00:10:28;;;;;;;13.27;1.60;;;;;;;5.92;100.00;99283.44;5030310;28;20449;-39
2023/01/09 00:12:53;;;;;;;11.45;1.55;;;;;;;5.91;100.00;99267.59;5039604;28;20040;-38
2023/01/09 00:15:18;;;;;;;8.55;1.90;;;;;;;5.90;100.00;99272.09;5043055;28;20029;-36
2023/01/09 00:17:46;;;;;;;8.85;1.50;;;;;;;5.92;100.00;99274.56;5037890;28;20045;-39
2023/01/09 00:20:12;;;;;;;9.30;1.48;;;;;;;5.94;100.00;99281.41;5044370;28;20029;-37
2023/01/09 00:22:38;;;;;;;14.45;2.10;;;;;;;5.97;100.00;99274.03;5040705;28;20391;-37
2023/01/09 00:25:04;;;;;;;13.02;1.75;;;;;;;5.98;100.00;99268.53;5030827;28;20049;-37
2023/01/09 00:27:31;;;;;;;8.20;1.40;;;;;;;6.01;100.00;99264.63;5042944;28;20433;-37
2023/01/09 00:29:56;;;;;;;10.60;1.35;;;;;;;5.97;100.00;99255.34;5024450;28;20033;-39
2023/01/09 00:32:22;;;;;;;14.10;2.35;;;;;;;5.98;100.00;99256.97;5040491;28;20045;-37
2023/01/09 00:34:47;;;;;;;10.43;2.00;;;;;;;5.94;100.00;99256.56;5038692;28;20125;-38
2023/01/09 00:37:13;;;;;;;11.77;1.73;;;;;;;5.88;100.00;99257.28;5045021;28;20439;-39
2023/01/09 00:39:38;;;;;;;17.50;1.52;;;;;;;5.82;100.00;99253.53;5039741;28;20166;-38
2023/01/09 00:42:05;;;;;;;12.10;1.60;;;;;;;5.78;100.00;99254.94;5030351;28;20497;-39
2023/01/09 00:44:58;;;;;;;4.05;1.15;;;;;;;5.71;100.00;99256.69;5031526;28;20036;-39
2023/01/09 00:47:37;;;;;;;8.45;1.63;;;;;;;5.67;100.00;99256.25;5037073;28;20116;-39
2023/01/09 00:50:06;;;;;;;6.55;1.50;;;;;;;5.64;100.00;99253.16;5031766;28;20041;-36
2023/01/09 00:52:33;;;;;;;9.23;1.60;;;;;;;5.61;100.00;99246.34;5029993;28;20128;-37
2023/01/09 00:54:58;;;;;;;9.80;1.35;;;;;;;5.59;100.00;99242.22;5031380;28;20040;-36
2023/01/09 00:57:23;;;;;;;11.52;1.80;;;;;;;5.55;100.00;99252.41;5036742;28;20025;-36
2023/01/09 00:59:49;;;;;;;7.43;1.80;;;;;;;5.54;100.00;99265.97;5038822;28;20116;-39
2023/01/09 01:02:14;;;;;;;8.13;1.88;;;;;;;5.52;100.00;99266.13;5030368;28;20029;-37
2023/01/09 01:07:39;;;;;;;8.65;1.52;;;;;;;5.47;100.00;99277.38;5035980;28;20524;-39
2023/01/09 01:10:06;;;;;;;7.35;1.73;;;;;;;5.47;100.00;99272.03;5034065;28;20525;-39
2023/01/09 01:12:31;;;;;;;15.02;2.08;;;;;;;5.47;100.00;99274.69;5030989;28;20128;-37
2023/01/09 01:14:57;;;;;;;10.27;2.17;;;;;;;5.48;100.00;99278.22;5032687;28;20025;-37
2023/01/09 01:17:22;;;;;;;6.38;2.03;;;;;;;5.49;100.00;99275.34;5039869;28;20110;-37
2023/01/09 01:19:47;;;;;;;12.75;2.67;;;;;;;5.47;100.00;99271.22;5035930;28;20036;-39
2023/01/09 01:22:13;;;;;;;5.55;2.03;;;;;;;5.47;100.00;99268.53;5031313;28;20100;-39
2023/01/09 01:24:38;;;;;;;12.00;2.03;;;;;;;5.43;100.00;99276.09;5034292;28;20461;-38
2023/01/09 01:27:03;;;;;;;9.73;2.10;;;;;;;5.44;100.00;99272.41;5032539;28;20021;-38
2023/01/09 01:29:29;;;;;;;6.72;2.10;;;;;;;5.41;100.00;99275.47;5044663;28;20017;-38
2023/01/09 01:31:54;;;;;;;10.73;2.05;;;;;;;5.39;100.00;99277.47;5040676;28;20043;-38
2023/01/09 01:34:19;;;;;;;14.57;2.30;;;;;;;5.40;100.00;99276.50;5029750;28;20084;-38
2023/01/09 01:36:45;;;;;;;10.40;2.35;;;;;;;5.41;100.00;99272.78;5031137;28;20038;-39
2023/01/09 01:39:10;;;;;;;10.55;2.38;;;;;;;5.39;100.00;99274.81;5034597;28;20435;-39
2023/01/09 01:41:36;;;;;;;7.10;2.08;;;;;;;5.41;100.00;99266.63;5035498;28;20021;-37
2023/01/09 01:44:05;;;;;;;6.32;1.95;;;;;;;5.41;100.00;99267.47;5028845;28;20112;-37
2023/01/09 01:46:32;;;;;;;11.55;2.33;;;;;;;5.42;100.00;99263.75;5027966;28;20036;-39
2023/01/09 01:49:09;;;;;;;11.10;2.75;;;;;;;5.46;100.00;99270.38;5031517;28;20030;-36
2023/01/09 01:51:40;;;;;;;13.45;2.50;;;;;;;5.50;100.00;99271.69;5028889;28;20034;-39
2023/01/09 01:54:08;;;;;;;14.98;2.65;;;;;;;5.52;100.00;99273.31;5031240;28;20215;-37
2023/01/09 01:56:55;;;;;;;8.43;2.03;;;;;;;5.50;100.00;99274.34;5030448;28;20403;-38
2023/01/09 01:59:50;;;;;;;9.00;2.50;;;;;;;5.51;100.00;99272.50;5028861;28;20033;-39
2023/01/09 02:02:22;;;;;;;13.25;2.30;;;;;;;5.52;100.00;99279.47;5031245;28;20037;-39
2023/01/09 02:04:49;;;;;;;13.68;3.00;;;;;;;5.54;100.00;99279.31;5037335;28;20186;-37
2023/01/09 02:07:15;;;;;;;7.03;2.60;;;;;;;5.52;100.00;99281.34;5028760;28;20029;-39
2023/01/09 02:09:43;;;;;;;9.30;2.30;;;;;;;5.50;100.00;99266.34;5029011;28;20032;-39
2023/01/09 02:12:14;;;;;;;;;;;;;;;5.49;100.00;99270.00;5031074;28;20411;-39
2023/01/09 02:14:40;;;;;;;9.75;3.25;;;;;;;5.51;100.00;99277.84;5029080;28;19913;-39
2023/01/09 02:17:16;;;;;;;12.13;2.40;;;;;;;5.50;100.00;99269.00;5048382;28;20344;-38
2023/01/09 02:20:04;;;;;;;6.03;2.45;;;;;;;5.49;100.00;99294.03;5046995;28;20393;-38
2023/01/09 02:22:36;;;;;;;8.32;2.80;;;;;;;5.52;100.00;99278.66;5035650;28;20039;-39
2023/01/09 02:25:32;;;;;;;8.38;2.30;;;;;;;5.50;100.00;99273.50;5039644;28;20029;-39
2023/01/09 02:28:35;;;;;;;9.25;2.80;;;;;;;5.49;100.00;99270.00;5031674;28;20033;-38
2023/01/09 02:31:31;;;;;;;5.30;2.58;;;;;;;5.49;100.00;99274.53;5034893;28;20089;-39
2023/01/09 02:34:24;;;;;;;17.85;2.78;;;;;;;5.48;100.00;99275.56;5032113;28;20472;-38
2023/01/09 02:37:02;;;;;;;9.88;3.15;;;;;;;5.49;100.00;99270.00;5033079;28;20033;-37
2023/01/09 02:39:45;;;;;;;7.22;2.85;;;;;;;5.49;100.00;99272.69;5039527;28;20022;-39
2023/01/09 02:42:13;;;;;;;21.35;3.67;;;;;;;5.50;100.00;99265.50;5033701;28;20248;-38
2023/01/09 02:44:41;;;;;;;10.52;3.50;;;;;;;5.50;100.00;99274.34;5034549;28;20021;-37
2023/01/09 02:47:15;;;;;;;8.13;2.92;;;;;;;5.48;100.00;99267.56;5037150;28;20602;-39
2023/01/09 02:50:01;;;;;;;13.48;2.67;;;;;;;5.49;100.00;99264.69;5042259;28;20020;-38
2023/01/09 02:52:47;;;;;;;12.02;2.88;;;;;;;5.47;100.00;99264.03;5046553;28;20065;-39
2023/01/09 02:55:37;;;;;;;12.40;2.42;;;;;;;5.46;100.00;99257.06;5051809;28;20053;-39
2023/01/09 02:58:05;;;;;;;18.00;3.53;;;;;;;5.49;100.00;99270.00;5040468;28;20087;-37
2023/01/09 03:00:52;;;;;;;12.68;2.60;;;;;;;5.52;100.00;99251.97;5039400;28;20542;-39
2023/01/09 03:03:24;;;;;;;12.88;3.08;;;;;;;5.53;100.00;99250.94;5046821;28;20037;-38
2023/01/09 03:05:56;;;;;;;12.75;2.60;;;;;;;5.55;100.00;99248.94;5039234;28;20033;-39
2023/01/09 03:08:24;;;;;;;15.20;2.50;;;;;;;5.52;100.00;99247.47;5041613;28;20485;-39
2023/01/09 03:11:05;;;;;;;17.17;2.63;;;;;;;5.54;100.00;99232.09;5030454;28;20048;-39
2023/01/09 03:13:52;;;;;;;14.35;2.47;;;;;;;5.53;100.00;99229.59;5034172;28;20036;-39
2023/01/09 03:16:20;;;;;;;18.30;2.40;;;;;;;5.53;100.00;99226.94;5021813;28;20147;-39
2023/01/09 03:18:48;;;;;;;13.15;2.45;;;;;;;5.53;100.00;99227.78;5043541;28;20098;-39
2023/01/09 03:21:13;;;;;;;9.87;1.97;;;;;;;5.56;100.00;99234.59;5030074;28;20138;-39
2023/01/09 03:23:54;;;;;;;12.70;2.42;;;;;;;5.57;100.00;99225.56;5031166;28;20072;-39
2023/01/09 03:26:20;;;;;;;7.78;2.05;;;;;;;5.59;100.00;99221.69;5032321;28;20013;-39
2023/01/09 03:28:46;;;;;;;10.57;2.05;;;;;;;5.62;100.00;99223.97;5034221;28;20039;-38
2023/01/09 03:31:11;;;;;;;6.30;2.15;;;;;;;5.65;100.00;99220.09;5040501;28;20112;-40
2023/01/09 03:33:36;;;;;;;16.02;2.20;;;;;;;5.66;100.00;99227.06;5034073;28;20046;-37
2023/01/09 03:36:02;;;;;;;13.20;2.47;;;;;;;5.69;100.00;99232.06;5037414;28;20029;-37
2023/01/09 03:38:27;;;;;;;10.43;2.42;;;;;;;5.73;100.00;99235.97;5042378;28;20040;-39
2023/01/09 03:40:53;;;;;;;13.80;1.92;;;;;;;5.73;100.00;99228.78;5031401;28;20056;-39
2023/01/09 03:43:18;;;;;;;13.32;2.53;;;;;;;5.77;100.00;99233.78;5032785;28;20538;-39
2023/01/09 03:45:43;;;;;;;11.05;2.33;;;;;;;5.80;100.00;99228.88;5044680;28;20113;-37
2023/01/09 03:48:09;;;;;;;14.05;3.22;;;;;;;5.84;100.00;99234.66;5040761;28;20528;-36
2023/01/09 03:50:34;;;;;;;12.60;2.70;;;;;;;5.79;100.00;99243.22;5034093;28;20032;-39
2023/01/09 03:53:00;;;;;;;10.60;2.38;;;;;;;5.71;100.00;99243.34;5038222;28;20044;-37
2023/01/09 03:55:25;;;;;;;10.93;2.75;;;;;;;5.68;100.00;99249.06;5031462;28;20041;-40
2023/01/09 03:57:51;;;;;;;11.30;3.90;;;;;;;5.65;100.00;99244.94;5030929;28;20036;-42
2023/01/09 04:00:18;;;;;;;13.85;2.95;;;;;;;5.58;100.00;99248.53;5040598;28;20025;-43
2023/01/09 04:02:44;;;;;;;13.50;2.83;;;;;;;5.54;100.00;99245.44;5039534;28;20551;-42
2023/01/09 04:05:09;;;;;;;14.35;2.65;;;;;;;5.53;100.00;99253.63;5037667;28;20025;-41
2023/01/09 04:07:34;;;;;;;13.48;3.10;;;;;;;5.48;100.00;99247.03;5038677;28;20510;-41
2023/01/09 04:10:00;;;;;;;23.40;2.70;;;;;;;5.46;100.00;99249.03;5032544;28;20048;-42
2023/01/09 04:12:25;;;;;;;8.43;2.70;;;;;;;5.49;100.00;99238.00;5034386;28;20091;-41
2023/01/09 04:14:50;;;;;;;15.40;3.22;;;;;;;5.48;100.00;99247.03;5031099;28;20083;-40
2023/01/09 04:17:16;;;;;;;13.95;3.10;;;;;;;5.47;100.00;99234.69;5031226;28;20030;-39
2023/01/09 04:19:41;;;;;;;11.60;2.83;;;;;;;5.45;100.00;99244.75;5034222;28;20049;-39
2023/01/09 04:22:06;;;;;;;9.43;2.78;;;;;;;5.46;100.00;99238.38;5038013;28;20028;-39
2023/01/09 04:24:32;;;;;;;14.00;2.97;;;;;;;5.50;100.00;99234.31;5038010;28;20028;-36
2023/01/09 04:26:58;;;;;;;15.65;2.75;;;;;;;5.49;100.00;99230.00;5050536;28;21421;-39
2023/01/09 04:29:23;;;;;;;19.45;3.15;;;;;;;5.60;100.00;99225.16;5050202;28;20017;-39
2023/01/09 04:31:48;;;;;;;16.08;2.80;;;;;;;5.56;100.00;99234.59;5041222;28;20071;-39
2023/01/09 04:34:14;;;;;;;14.27;2.85;;;;;;;5.57;100.00;99228.22;5030295;28;20468;-39
2023/01/09 04:36:40;;;;;;;9.32;2.70;;;;;;;5.57;100.00;99218.38;5035878;28;20044;-39
2023/01/09 04:39:05;;;;;;;15.68;3.17;;;;;;;5.61;100.00;99216.13;5038761;28;20132;-39
2023/01/09 04:41:48;;;;;;;12.52;2.63;;;;;;;5.60;100.00;99206.50;5042806;28;20306;-39
2023/01/09 04:44:25;;;;;;;15.35;2.92;;;;;;;5.62;100.00;99204.47;5035398;28;20044;-38
2023/01/09 04:46:50;;;;;;;12.35;2.53;;;;;;;5.65;100.00;99198.75;5039220;28;20037;-37
2023/01/09 04:49:15;;;;;;;9.52;1.83;;;;;;;5.70;100.00;99201.66;5034888;28;20488;-39
2023/01/09 04:51:41;;;;;;;12.23;2.25;;;;;;;5.76;100.00;99200.06;5032840;28;20558;-39
2023/01/09 04:54:06;;;;;;;7.05;2.30;;;;;;;5.81;100.00;99193.13;5034685;28;20057;-38
2023/01/09 04:56:31;;;;;;;10.38;2.55;;;;;;;5.78;100.00;99192.72;5035145;28;20029;-38
2023/01/09 04:58:57;;;;;;;9.85;2.20;;;;;;;5.81;100.00;99190.47;5035336;28;20154;-36
2023/01/09 05:01:23;;;;;;;7.13;3.13;;;;;;;5.85;100.00;99191.75;5038165;28;20037;-39
2023/01/09 05:03:48;;;;;;;8.40;2.67;;;;;;;5.83;100.00;99195.63;5041725;28;20033;-39
2023/01/09 05:06:13;;;;;;;7.38;2.35;;;;;;;5.76;100.00;99182.22;5036325;28;20055;-41
2023/01/09 05:08:39;;;;;;;14.48;2.65;;;;;;;5.68;100.00;99193.00;5043534;28;20115;-44
2023/01/09 05:11:04;;;;;;;9.95;3.00;;;;;;;5.62;100.00;99193.78;5032122;28;20082;-45
2023/01/09 05:13:29;;;;;;;12.27;3.22;;;;;;;5.55;100.00;99190.22;5047928;28;20029;-44
2023/01/09 05:15:55;;;;;;;11.55;3.00;;;;;;;5.49;100.00;99197.97;5034404;28;20444;-44
2023/01/09 05:18:20;;;;;;;12.90;3.17;;;;;;;5.44;100.00;99208.38;5038927;28;20048;-45
2023/01/09 05:20:45;;;;;;;13.77;3.20;;;;;;;5.42;100.00;99199.72;5034931;28;20025;-44
2023/01/09 05:23:11;;;;;;;11.07;3.10;;;;;;;5.40;100.00;99206.31;5039084;28;20530;-44
2023/01/09 05:25:36;;;;;;;12.60;3.92;;;;;;;5.38;100.00;99206.47;5036054;28;20443;-44
2023/01/09 05:28:01;;;;;;;13.00;3.25;;;;;;;5.36;100.00;99210.34;5043810;28;20120;-45
2023/01/09 05:30:27;;;;;;;10.40;3.78;;;;;;;5.34;100.00;99202.50;5046400;28;20068;-44
2023/01/09 05:32:52;;;;;;;15.18;3.97;;;;;;;5.35;100.00;99203.38;5042403;28;20476;-45
2023/01/09 05:35:19;;;;;;;10.18;4.28;;;;;;;5.34;100.00;99202.50;5043951;28;20032;-44
2023/01/09 05:37:44;;;;;;;14.82;4.53;;;;;;;5.36;100.00;99205.81;5036578;28;20044;-45
2023/01/09 05:40:10;;;;;;;14.45;4.93;;;;;;;5.34;100.00;99193.69;5040962;28;20029;-45
2023/01/09 05:42:35;;;;;;;13.55;5.30;;;;;;;5.35;100.00;99203.38;5033938;28;20647;-44
2023/01/09 05:45:01;;;;;;;10.60;4.95;;;;;;;5.37;100.00;99199.50;5041760;28;20493;-43
2023/01/09 05:47:26;;;;;;;15.35;5.15;;;;;;;5.39;100.00;99199.28;5032354;28;20035;-44
2023/01/09 05:49:55;;;;;;;22.15;5.53;;;;;;;5.38;100.00;99200.31;5034573;28;20057;-43
2023/01/09 05:52:20;;;;;;;17.08;5.70;;;;;;;5.39;100.00;99197.44;5032123;28;20030;-43
2023/01/09 05:54:46;;;;;;;17.60;6.35;;;;;;;5.41;100.00;99198.09;5029043;28;20037;-42
2023/01/09 05:57:11;;;;;;;14.57;4.97;;;;;;;5.42;100.00;99198.91;5040048;28;20518;-41
2023/01/09 05:59:36;;;;;;;19.58;5.75;;;;;;;5.45;100.00;99209.19;5035384;28;20033;-41
2023/01/09 06:02:02;;;;;;;24.00;5.88;;;;;;;5.47;100.00;99207.19;5039384;28;20025;-41
2023/01/09 06:04:28;;;;;;;13.68;5.05;;;;;;;5.49;100.00;99207.81;5039803;28;20059;-40
2023/01/09 06:06:54;;;;;;;21.25;4.68;;;;;;;5.52;100.00;99207.44;5045965;28;20064;-38
2023/01/09 06:09:19;;;;;;;14.95;4.80;;;;;;;5.54;100.00;99202.75;5031247;28;20069;-40
2023/01/09 06:11:45;;;;;;;19.65;4.63;;;;;;;5.58;100.00;99219.19;5029896;28;20030;-38
2023/01/09 06:14:10;;;;;;;18.45;4.25;;;;;;;5.60;100.00;99195.81;5033490;28;20029;-40
2023/01/09 06:16:35;;;;;;;17.95;3.90;;;;;;;5.63;100.00;99195.44;5035878;28;20023;-39
2023/01/09 06:19:01;;;;;;;13.57;4.20;;;;;;;5.65;100.00;99204.06;5044201;28;20017;-39
2023/01/09 06:21:28;;;;;;;12.80;3.63;;;;;;;5.65;100.00;99196.91;5020089;28;20036;-39
2023/01/09 06:23:54;;;;;;;14.68;4.20;;;;;;;5.68;100.00;99203.69;5015998;28;20021;-39
2023/01/09 06:26:19;;;;;;;24.42;3.95;;;;;;;5.69;100.00;99200.03;5040300;28;20043;-37
2023/01/09 06:28:44;;;;;;;18.70;4.53;;;;;;;5.71;100.00;99201.50;5042617;28;20108;-40
2023/01/09 06:31:10;;;;;;;21.20;4.38;;;;;;;5.73;100.00;99203.94;5040457;28;20327;-39
2023/01/09 06:33:35;;;;;;;23.02;5.40;;;;;;;5.75;100.00;99201.91;5041032;28;20095;-40
2023/01/09 06:36:00;;;;;;;15.80;3.83;;;;;;;5.77;100.00;99202.56;5042281;28;20676;-40
2023/01/09 06:38:26;;;;;;;20.63;4.70;;;;;;;5.79;100.00;99210.38;5036993;28;20090;-38
2023/01/09 06:40:51;;;;;;;20.88;5.05;;;;;;;5.82;100.00;99221.50;5041642;28;20021;-39
2023/01/09 06:43:16;;;;;;;25.83;4.47;;;;;;;5.83;100.00;99217.81;5045998;28;20029;-38
2023/01/09 06:45:42;;;;;;;26.73;5.03;;;;;;;5.86;100.00;99228.09;5043063;28;20083;-38
2023/01/09 06:48:08;;;;;;;24.27;4.05;;;;;;;5.87;100.00;99229.78;5044316;28;20028;-41
2023/01/09 06:50:34;;;;;;;14.05;3.00;;;;;;;5.88;100.00;99236.75;5040392;28;20101;-41
2023/01/09 06:52:59;;;;;;;14.45;2.63;;;;;;;5.87;100.00;99231.59;5038195;28;20153;-42
2023/01/09 06:55:25;;;;;;;13.55;3.22;;;;;;;5.89;100.00;99233.06;5038941;28;20407;-41
2023/01/09 06:57:50;;;;;;;7.80;1.85;;;;;;;5.92;100.00;99242.53;5034311;28;20034;-40
2023/01/09 07:00:16;;;;;;;13.70;2.65;;;;;;;5.96;100.00;99257.19;5039877;28;20040;-40
2023/01/09 07:02:42;;;;;;;7.75;1.23;;;;;;;5.99;100.00;99256.81;5040867;28;20106;-40
2023/01/09 07:05:07;;;;;;;8.20;1.33;;;;;;;6.02;100.00;99260.94;5041017;28;20412;-40
2023/01/09 07:07:33;;;;;;;6.78;1.73;;;;;;;6.04;100.00;99272.25;5043629;28;20040;-39
2023/01/09 07:09:58;;;;;;;19.65;1.67;;;;;;;6.06;100.00;99273.72;5038650;28;20036;-40
2023/01/09 07:12:24;;;;;;;15.38;1.52;;;;;;;6.08;100.00;99284.19;5038776;28;20040;-40
2023/01/09 07:14:49;;;;;;;8.35;1.10;;;;;;;6.11;100.00;99297.19;5036806;28;20055;-39
2023/01/09 07:17:14;;;;;;;7.32;1.48;;;;;;;6.12;100.00;99301.50;5040575;28;20090;-40
2023/01/09 07:19:40;;;;;;;12.00;1.20;;;;;;;6.15;100.00;99311.81;5041728;28;20032;-39
2023/01/09 07:22:05;;;;;;;9.90;1.27;;;;;;;6.15;100.00;99311.81;5055840;28;20030;-37
2023/01/09 07:24:30;;;;;;;7.20;0.93;;;;;;;6.15;100.00;99312.63;5043901;28;20424;-40
2023/01/09 07:26:56;;;;;;;9.55;1.13;;;;;;;6.14;100.00;99320.84;5044949;28;20037;-41
2023/01/09 07:29:21;;;;;;;16.80;1.15;;;;;;;6.14;100.00;99320.84;5043959;28;20040;-40
2023/01/09 07:31:47;;;;;;;13.70;1.25;;;;;;;6.16;100.00;99324.13;5042504;28;20047;-40
2023/01/09 07:34:12;;;;;;;11.88;0.93;;;;;;;6.19;100.00;99339.81;5040293;28;20076;-39
2023/01/09 07:36:37;;;;;;;8.40;0.98;;;;;;;6.20;100.00;99332.63;5041744;28;20032;-39
2023/01/09 07:39:03;;;;;;;8.60;0.95;;;;;;;6.22;100.00;99344.78;5042005;28;20056;-39
2023/01/09 07:41:28;;;;;;;10.50;0.98;;;;;;;6.25;100.00;99355.06;5044900;28;20051;-39
2023/01/09 07:43:53;;;;;;;9.15;0.88;;;;;;;6.26;100.00;99362.06;5044190;28;20021;-40
2023/01/09 07:46:19;;;;;;;7.47;1.27;;;;;;;6.26;100.00;99364.72;5044657;28;20506;-38
2023/01/09 07:48:44;;;;;;;10.57;1.05;;;;;;;6.29;100.00;99367.03;5043405;28;20045;-36
2023/01/09 07:51:10;;;;;;;11.63;1.05;;;;;;;6.30;100.00;99376.69;5044491;28;20535;-38
2023/01/09 07:53:35;;;;;;;13.07;1.08;;;;;;;6.32;100.00;99387.22;5044264;28;20029;-39
2023/01/09 07:56:00;;;;;;;15.77;1.65;;;;;;;6.34;100.00;99402.00;5045381;28;20025;-39
2023/01/09 07:58:26;;;;;;;14.98;1.08;;;;;;;6.35;100.00;99401.00;5045034;28;20104;-40
2023/01/09 08:00:51;;;;;;;23.67;2.00;;;;;;;6.37;100.00;99406.16;5045378;28;20068;-40
2023/01/09 08:03:16;;;;;;;9.85;1.70;;;;;;;6.42;100.00;99408.25;5043830;28;20132;-37
2023/01/09 08:05:42;;;;;;;29.25;2.28;;;;;;;6.44;100.00;99422.25;5045810;28;20032;-39
2023/01/09 08:08:07;;;;;;;18.20;1.77;;;;;;;6.45;100.00;99435.44;5043967;28;20089;-40
2023/01/09 08:10:32;;;;;;;20.73;1.83;;;;;;;6.47;100.00;99432.56;5045745;28;20029;-39
2023/01/09 08:12:58;;;;;;;17.58;1.92;;;;;;;6.51;100.00;99444.53;5045394;28;20386;-40
2023/01/09 08:15:23;;;;;;;26.63;1.80;;;;;;;6.52;100.00;99446.19;5045489;28;20064;-40
2023/01/09 08:17:49;;;;;;;27.17;2.08;;;;;;;6.54;100.00;99460.19;5046314;28;20037;-40
2023/01/09 08:20:15;;;;;;;30.75;2.70;;;;;;;6.56;100.00;99464.34;5043715;28;20048;-39
2023/01/09 08:22:42;;;;;;;28.92;2.80;;;;;;;6.56;100.00;99471.53;5046158;28;20040;-40
2023/01/09 08:25:08;;;;;;;31.20;2.63;;;;;;;6.57;100.00;99475.84;5045988;28;20025;-38
2023/01/09 08:27:33;;;;;;;26.83;4.05;;;;;;;6.59;100.00;99471.16;5043526;28;20044;-39
2023/01/09 08:29:59;;;;;;;24.45;2.33;;;;;;;6.60;100.00;99491.50;5045385;28;20130;-38
2023/01/09 08:32:24;;;;;;;23.25;2.70;;;;;;;6.64;100.00;99487.44;5044011;28;20033;-39
2023/01/09 08:34:50;;;;;;;32.30;2.65;;;;;;;6.64;100.00;99492.81;5046068;28;20401;-40
2023/01/09 08:37:15;;;;;;;27.40;2.80;;;;;;;6.66;100.00;99498.78;5044679;28;20106;-40
2023/01/09 08:39:41;;;;;;;22.92;2.60;;;;;;;6.67;100.00;99500.44;5045576;28;20029;-39
2023/01/09 08:47:34;;;;;;;21.65;2.72;;;;;;;6.74;100.00;99521.88;5045826;28;20044;-40
2023/01/09 08:50:00;;;;;;;26.67;3.63;;;;;;;6.72;100.00;99516.75;5045531;28;20056;-41
2023/01/09 08:52:25;;;;;;;16.77;2.80;;;;;;;6.75;100.00;99531.56;5045742;28;20025;-40
2023/01/09 08:54:50;;;;;;;20.85;2.38;;;;;;;6.77;100.00;99530.38;5045953;28;20508;-41
2023/01/09 08:57:16;;;;;;;26.35;2.90;;;;;;;6.78;100.00;99540.03;5044826;28;20040;-40
2023/01/09 08:59:41;;;;;;;21.90;2.58;;;;;;;6.81;100.00;99547.69;5026380;28;20080;-40
2023/01/09 09:02:07;;;;;;;25.98;2.50;;;;;;;6.81;100.00;99552.19;5040225;28;20114;-41
2023/01/09 09:04:32;;;;;;;24.65;3.08;;;;;;;6.82;100.00;99544.00;5044224;28;20036;-41
2023/01/09 09:06:58;;;;;;;23.33;2.90;;;;;;;6.86;100.00;99555.13;5041018;28;20029;-41
2023/01/09 09:09:24;;;;;;;23.90;2.70;;;;;;;6.81;100.00;99555.69;5043104;28;20087;-42
2023/01/09 09:11:50;;;;;;;22.33;3.10;;;;;;;6.78;100.00;99553.41;5043223;28;20032;-40
2023/01/09 09:16:59;;;;;;;20.00;2.53;;;;;;;6.82;100.00;99560.03;5040901;28;20090;-40
2023/01/09 09:19:24;;;;;;;17.95;1.73;;;;;;;6.82;100.00;99557.38;5044221;28;20029;-41
2023/01/09 09:21:50;;;;;;;15.32;2.15;;;;;;;6.85;100.00;99563.38;5043592;28;20029;-41
2023/01/09 09:24:15;;;;;;;18.92;1.67;;;;;;;6.90;100.00;99558.25;5042954;28;20052;-41
2023/01/09 09:26:40;;;;;;;19.42;1.83;;;;;;;6.97;100.00;99569.84;5043913;28;20037;-39
2023/01/09 09:29:06;;;;;;;18.13;2.20;;;;;;;6.96;100.00;99573.56;5043514;28;20033;-40
2023/01/09 09:31:31;;;;;;;22.85;2.38;;;;;;;6.91;100.00;99584.00;5043116;28;20511;-40
2023/01/09 09:33:57;;;;;;;25.75;2.40;;;;;;;6.88;100.00;99589.72;5045491;28;20060;-40
2023/01/09 09:36:22;;;;;;;28.00;2.45;;;;;;;6.82;100.00;99596.66;5044408;28;20103;-39
2023/01/09 09:38:48;;;;;;;13.02;2.10;;;;;;;6.81;100.00;99595.81;5044782;28;20119;-40
2023/01/09 09:47:16;;;;;;;18.30;2.42;;;;;;;6.90;100.00;99614.41;5042200;28;20086;-40
2023/01/09 09:50:02;;;;;;;18.70;2.70;;;;;;;7.00;100.00;99631.00;5044209;28;20041;-40
2023/01/09 09:52:42;;;;;;;25.40;2.15;;;;;;;7.08;100.00;99644.25;5039897;28;20037;-39
2023/01/09 09:55:29;;;;;;;14.50;1.85;;;;;;;7.12;100.00;99645.56;5040646;28;20037;-40
2023/01/09 09:57:55;;;;;;;17.02;2.55;;;;;;;7.08;100.00;99646.09;5036853;28;20059;-39
2023/01/09 10:00:22;;;;;;;20.20;2.35;;;;;;;7.10;100.00;99644.09;5038395;28;20048;-37
2023/01/09 10:03:03;;;;;;;14.38;2.03;;;;;;;7.07;100.00;99657.84;5034359;28;20040;-40
2023/01/09 10:05:33;;;;;;;23.55;2.55;;;;;;;7.06;100.00;99657.03;5037054;28;20072;-41
2023/01/09 10:08:04;;;;;;;15.93;2.55;;;;;;;7.07;100.00;99656.00;5040816;28;20033;-40
2023/01/09 10:10:37;;;;;;;17.42;1.90;;;;;;;7.08;100.00;99662.97;5036737;28;20028;-41
2023/01/09 10:14:03;;;;;;;22.70;2.20;;;;;;;7.14;100.00;99672.97;5027476;28;20125;-39
2023/01/09 10:16:18;;;;;;;21.55;3.00;;;;;;;7.32;100.00;99679.72;5030661;28;20044;-40
2023/01/09 10:19:34;;;;;;;15.73;2.30;;;;;;;7.51;100.00;99675.63;5031653;28;20044;-40
2023/01/09 10:22:12;;;;;;;16.97;2.83;;;;;;;7.72;100.00;99685.50;5027036;28;20041;-41
2023/01/09 10:24:37;;;;;;;;;;;;;;;7.74;100.00;99686.13;5037096;28;20350;-40
2023/01/09 10:27:31;;;;;;;25.07;2.97;;;;;;;7.83;100.00;99690.34;5041381;28;19962;-40
2023/01/09 10:30:27;;;;;;;21.67;2.40;;;;;;;7.91;100.00;99692.88;5030198;28;20290;-41
2023/01/09 10:33:00;;;;;;;14.88;2.10;;;;;;;7.95;100.00;99699.50;5043688;28;20096;-40
2023/01/09 10:35:46;;;;;;;25.67;2.60;;;;;;;7.91;100.00;99700.91;5049307;28;20021;-40
2023/01/09 10:38:16;;;;;;;10.65;1.90;;;;;;;7.93;100.00;99700.75;5044130;28;20234;-40
2023/01/09 10:40:46;;;;;;;19.35;2.67;;;;;;;7.88;100.00;99698.63;5028689;28;20116;-40
2023/01/09 10:43:42;;;;;;;25.40;2.17;;;;;;;7.76;100.00;99705.50;5036874;28;20025;-42
2023/01/09 10:46:17;;;;;;;22.35;2.50;;;;;;;7.75;100.00;99712.72;5033233;28;20162;-40
2023/01/09 10:48:51;;;;;;;24.17;2.45;;;;;;;7.80;100.00;99717.50;5039404;28;20025;-42
2023/01/09 10:51:19;;;;;;;17.77;2.35;;;;;;;7.77;100.00;99723.25;5053771;28;20504;-39
2023/01/09 10:53:48;;;;;;;17.58;2.17;;;;;;;7.70;100.00;99729.34;5053549;28;20096;-39
2023/01/09 10:56:28;;;;;;;17.88;2.15;;;;;;;7.66;100.00;99733.44;5053164;28;20112;-39
2023/01/09 10:58:54;;;;;;;16.70;2.38;;;;;;;7.65;100.00;99734.44;5053067;28;20032;-41
2023/01/09 11:01:25;;;;;;;25.38;2.97;;;;;;;7.61;100.00;99743.03;5041323;28;20392;-41
2023/01/09 11:03:50;;;;;;;15.35;2.15;;;;;;;7.61;100.00;99745.72;5033574;28;20052;-39
2023/01/09 11:06:26;;;;;;;19.30;2.70;;;;;;;7.63;100.00;99749.88;5033414;28;20021;-41
2023/01/09 11:08:55;;;;;;;18.48;2.78;;;;;;;7.62;100.00;99748.22;5031840;28;20457;-40
2023/01/09 11:11:50;;;;;;;17.65;2.55;;;;;;;7.68;100.00;99755.50;5033360;28;20026;-40
2023/01/09 11:14:29;;;;;;;17.30;2.58;;;;;;;7.73;100.00;99754.09;5023815;28;20443;-40
2023/01/09 11:16:57;;;;;;;23.17;2.75;;;;;;;7.74;100.00;99753.06;5031904;28;20040;-39
2023/01/09 11:19:23;;;;;;;19.83;2.60;;;;;;;7.80;100.00;99753.16;5031601;28;20172;-42
2023/01/09 11:21:49;;;;;;;24.23;3.08;;;;;;;7.88;100.00;99757.56;5032885;28;20262;-38
2023/01/09 11:24:17;;;;;;;33.15;2.55;;;;;;;7.85;100.00;99758.78;5031685;28;20385;-40
2023/01/09 11:26:42;;;;;;;27.45;2.75;;;;;;;8.01;100.00;99755.00;5032994;28;20410;-40
2023/01/09 11:29:13;;;;;;;21.52;2.80;;;;;;;8.10;100.00;99759.19;5034306;28;20036;-40
2023/01/09 11:31:40;;;;;;;20.10;2.30;;;;;;;8.27;100.00;99761.63;5051990;28;20036;-41
2023/01/09 11:34:14;;;;;;;16.65;2.33;;;;;;;8.21;100.00;99767.75;5041597;28;20477;-40
2023/01/09 11:36:39;;;;;;;16.05;2.58;;;;;;;8.25;100.00;99755.63;5033383;28;20502;-40
2023/01/09 11:39:04;;;;;;;17.40;2.92;;;;;;;8.27;100.00;99759.78;5031022;28;20124;-40
2023/01/09 11:41:36;;;;;;;19.35;2.35;;;;;;;8.26;100.00;99766.13;5032277;28;20113;-39
2023/01/09 11:44:02;;;;;;;24.50;3.47;;;;;;;8.25;100.00;99769.03;5031039;28;20030;-39
2023/01/09 11:46:40;;;;;;;20.27;2.40;;;;;;;8.14;100.00;99775.75;5047331;28;20029;-40
2023/01/09 11:49:12;;;;;;;23.35;2.30;;;;;;;8.21;100.00;99778.47;5033088;28;20037;-41
2023/01/09 11:51:38;;;;;;;22.15;2.50;;;;;;;8.50;100.00;99785.53;5035732;28;20083;-41